createdAt,value
2018-02-19T00:00:22.520Z,61.37
2018-02-19T00:02:50.030Z,51.33
2018-02-19T00:05:17.551Z,61.28
2018-02-19T00:07:45.045Z,59.17
2018-02-19T00:10:12.557Z,53.67
2018-02-19T00:12:40.060Z,53.90
2018-02-19T00:15:07.579Z,55.97
2018-02-19T00:17:35.084Z,57.40
2018-02-19T00:20:02.595Z,53.60
2018-02-19T00:22:30.089Z,54.50
2018-02-19T00:24:57.603Z,58.17
2018-02-19T00:27:25.116Z,55.40
2018-02-19T00:29:53.420Z,52.88
2018-02-19T00:32:20.971Z,58.87
2018-02-19T00:34:49.236Z,55.72
2018-02-19T00:37:17.509Z,57.03
2018-02-19T00:39:45.823Z,53.63
2018-02-19T00:42:13.318Z,52.80
2018-02-19T00:44:40.834Z,58.55
2018-02-19T00:47:08.349Z,57.80
2018-02-19T00:49:35.894Z,53.85
2018-02-19T00:52:03.401Z,53.00
2018-02-19T00:54:30.930Z,51.63
2018-02-19T00:56:58.449Z,54.55
2018-02-19T00:59:25.975Z,50.85
2018-02-19T01:01:53.516Z,53.10
2018-02-19T01:04:21.786Z,47.15
2018-02-19T01:06:50.092Z,44.65
2018-02-19T01:09:17.594Z,45.47
2018-02-19T01:11:45.082Z,46.37
2018-02-19T01:14:13.407Z,43.72
2018-02-19T01:16:40.912Z,41.35
2018-02-19T01:19:08.432Z,46.65
2018-02-19T01:21:35.983Z,46.65
2018-02-19T01:24:03.476Z,45.45
2018-02-19T01:26:30.990Z,43.80
2018-02-19T01:28:58.537Z,41.22
2018-02-19T01:31:26.036Z,41.13
2018-02-19T01:33:53.575Z,41.45
2018-02-19T01:36:21.068Z,43.80
2018-02-19T01:38:48.558Z,39.53
2018-02-19T01:41:16.849Z,40.53
2018-02-19T01:43:44.371Z,43.58
2018-02-19T01:46:11.868Z,37.70
2018-02-19T01:48:39.389Z,40.30
2018-02-19T01:51:07.668Z,37.10
2018-02-19T01:53:35.984Z,39.72
2018-02-19T01:56:03.510Z,37.78
2018-02-19T01:58:31.812Z,38.63
2018-02-19T02:00:59.306Z,41.20
2018-02-19T02:03:26.841Z,32.92
2018-02-19T02:05:54.387Z,38.72
2018-02-19T02:08:21.890Z,41.15
2018-02-19T02:10:49.431Z,38.45
2018-02-19T02:13:16.952Z,39.65
2018-02-19T02:15:44.475Z,39.78
2018-02-19T02:18:12.019Z,41.17
2018-02-19T02:20:39.563Z,42.03
2018-02-19T02:23:07.064Z,44.20
2018-02-19T02:25:35.343Z,37.40
2018-02-19T02:28:03.612Z,39.63
2018-02-19T02:30:31.899Z,38.28
2018-02-19T02:33:00.184Z,44.83
2018-02-19T02:35:28.479Z,38.40
2018-02-19T02:37:55.980Z,36.30
2018-02-19T02:40:23.511Z,36.47
2018-02-19T02:42:51.028Z,36.38
2018-02-19T02:45:19.315Z,36.22
2018-02-19T02:47:47.574Z,37.53
2018-02-19T02:50:15.874Z,36.72
2018-02-19T02:52:43.373Z,40.00
2018-02-19T02:55:10.887Z,40.00
2018-02-19T02:57:38.448Z,37.75
2018-02-19T03:00:05.945Z,37.42
2018-02-19T03:02:33.459Z,35.38
2018-02-19T03:05:01.741Z,34.10
2018-02-19T03:07:29.274Z,34.42
2018-02-19T03:09:57.594Z,33.33
2018-02-19T03:12:25.093Z,36.33
2018-02-19T03:14:52.635Z,30.90
2018-02-19T03:17:20.129Z,30.45
2018-02-19T03:19:48.407Z,28.20
2018-02-19T03:22:16.721Z,30.85
2018-02-19T03:24:44.209Z,28.67
2018-02-19T03:27:11.748Z,31.55
2018-02-19T03:29:39.243Z,29.30
2018-02-19T03:32:06.751Z,30.65
2018-02-19T03:34:34.290Z,30.25
2018-02-19T03:37:02.613Z,30.55
2018-02-19T03:39:30.191Z,28.15
2018-02-19T03:41:57.698Z,28.17
2018-02-19T03:44:25.208Z,28.50
2018-02-19T03:46:52.736Z,24.52
2018-02-19T03:49:20.282Z,25.95
2018-02-19T03:51:47.774Z,25.27
2018-02-19T03:54:15.300Z,28.20
2018-02-19T03:56:42.827Z,25.70
2018-02-19T03:59:11.097Z,25.92
2018-02-19T04:01:39.360Z,28.20
2018-02-19T04:04:06.870Z,30.58
2018-02-19T04:06:34.428Z,29.12
2018-02-19T04:09:01.939Z,28.62
2018-02-19T04:11:29.464Z,28.05
2018-02-19T04:13:56.995Z,27.85
2018-02-19T04:16:24.523Z,29.42
2018-02-19T04:18:52.807Z,29.40
2018-02-19T04:21:21.076Z,32.25
2018-02-19T04:23:49.389Z,35.97
2018-02-19T04:26:17.654Z,32.75
2018-02-19T04:28:45.164Z,29.87
2018-02-19T04:31:12.683Z,30.17
2018-02-19T04:33:40.193Z,31.23
2018-02-19T04:36:07.674Z,35.00
2018-02-19T04:38:35.968Z,34.40
2018-02-19T04:41:03.500Z,33.67
2018-02-19T04:43:31.765Z,38.35
2018-02-19T04:46:03.966Z,35.35
2018-02-19T04:48:34.402Z,35.30
2018-02-19T04:51:04.788Z,31.40
2018-02-19T04:53:33.105Z,34.45
2018-02-19T04:56:00.610Z,33.97
2018-02-19T04:58:28.110Z,35.97
2018-02-19T05:00:55.630Z,34.67
2018-02-19T05:03:23.133Z,38.13
2018-02-19T05:05:50.633Z,35.28
2018-02-19T05:08:18.168Z,36.75
2018-02-19T05:10:45.692Z,37.17
2018-02-19T05:13:13.985Z,35.38
2018-02-19T05:15:41.510Z,40.38
2018-02-19T05:18:09.787Z,33.45
2018-02-19T05:20:38.055Z,38.72
2018-02-19T05:23:06.383Z,35.28
2018-02-19T05:25:33.906Z,35.00
2018-02-19T05:28:02.172Z,39.22
2018-02-19T05:30:30.462Z,36.05
2018-02-19T05:32:58.785Z,40.08
2018-02-19T05:35:26.317Z,41.37
2018-02-19T05:37:53.821Z,36.13
2018-02-19T05:40:21.347Z,35.33
2018-02-19T05:42:48.853Z,38.25
2018-02-19T05:45:16.424Z,38.92
2018-02-19T05:47:44.690Z,36.47
2018-02-19T05:50:12.212Z,36.40
2018-02-19T05:52:39.751Z,44.03
2018-02-19T05:55:07.239Z,39.22
2018-02-19T05:57:34.757Z,37.83
2018-02-19T06:00:02.255Z,42.60
2018-02-19T06:02:29.774Z,43.17
2018-02-19T06:04:57.299Z,42.17
2018-02-19T06:07:24.834Z,39.40
2018-02-19T06:09:52.348Z,44.90
2018-02-19T06:12:19.863Z,40.60
2018-02-19T06:14:47.410Z,41.03
2018-02-19T06:17:14.898Z,44.70
2018-02-19T06:19:43.181Z,45.78
2018-02-19T06:22:11.447Z,39.95
2018-02-19T06:24:39.725Z,42.67
2018-02-19T06:27:08.016Z,41.80
2018-02-19T06:29:36.296Z,50.08
2018-02-19T06:32:04.587Z,46.53
2018-02-19T06:34:32.155Z,40.75
2018-02-19T06:36:59.650Z,44.28
2018-02-19T06:39:27.206Z,42.67
2018-02-19T06:41:54.731Z,43.90
2018-02-19T06:44:22.227Z,48.38
2018-02-19T06:46:49.743Z,43.28
2018-02-19T06:49:17.270Z,50.65
2018-02-19T06:51:45.569Z,44.30
2018-02-19T06:54:13.086Z,46.25
2018-02-19T06:56:40.630Z,46.35
2018-02-19T06:59:08.150Z,49.70
2018-02-19T07:01:35.646Z,44.90
2018-02-19T07:04:03.196Z,50.28
2018-02-19T07:06:30.712Z,47.95
2018-02-19T07:08:59.040Z,46.97
2018-02-19T07:11:26.575Z,45.72
2018-02-19T07:13:54.083Z,45.72
2018-02-19T07:16:21.603Z,46.85
2018-02-19T07:18:49.114Z,50.25
2018-02-19T07:21:17.389Z,46.95
2018-02-19T07:23:45.683Z,44.70
2018-02-19T07:26:13.199Z,45.08
2018-02-19T07:28:40.692Z,43.28
2018-02-19T07:31:08.218Z,47.20
2018-02-19T07:33:36.541Z,49.42
2018-02-19T07:36:04.091Z,43.55
2018-02-19T07:38:31.624Z,45.00
2018-02-19T07:40:59.910Z,44.20
2018-02-19T07:43:28.191Z,46.20
2018-02-19T07:45:56.483Z,41.55
2018-02-19T07:48:24.008Z,43.72
2018-02-19T07:50:52.300Z,43.53
2018-02-19T07:53:20.605Z,44.10
2018-02-19T07:55:48.143Z,43.65
2018-02-19T07:58:16.443Z,39.60
2018-02-19T08:00:45.293Z,47.70
2018-02-19T08:03:13.560Z,41.70
2018-02-19T08:05:41.111Z,44.03
2018-02-19T08:08:08.632Z,40.65
2018-02-19T08:10:36.129Z,43.28
2018-02-19T08:13:04.447Z,38.65
2018-02-19T08:15:31.959Z,42.45
2018-02-19T08:17:59.478Z,42.00
2018-02-19T08:20:27.001Z,37.60
2018-02-19T08:22:54.542Z,40.53
2018-02-19T08:25:22.064Z,44.55
2018-02-19T08:27:49.586Z,45.35
2018-02-19T08:30:17.862Z,47.55
2018-02-19T08:32:46.111Z,41.45
2018-02-19T08:35:13.657Z,43.67
2018-02-19T08:37:41.151Z,39.60
2018-02-19T08:40:09.448Z,46.58
2018-02-19T08:42:36.942Z,48.38
2018-02-19T08:45:04.458Z,39.75
2018-02-19T08:47:31.996Z,39.58
2018-02-19T08:50:00.293Z,40.88
2018-02-19T08:52:27.799Z,43.85
2018-02-19T08:54:55.300Z,42.33
2018-02-19T08:57:23.615Z,44.85
2018-02-19T08:59:51.168Z,39.72
2018-02-19T09:02:18.697Z,40.67
2018-02-19T09:04:46.223Z,42.25
2018-02-19T09:07:13.737Z,47.90
2018-02-19T09:09:41.265Z,43.08
2018-02-19T09:12:09.299Z,42.00
2018-02-19T09:14:36.796Z,45.92
2018-02-19T09:17:04.344Z,40.40
2018-02-19T09:19:32.641Z,43.63
2018-02-19T09:22:00.185Z,45.30
2018-02-19T09:24:28.476Z,44.80
2018-02-19T09:26:55.984Z,42.30
2018-02-19T09:29:23.522Z,38.38
2018-02-19T09:31:51.024Z,39.13
2018-02-19T09:34:18.558Z,36.70
2018-02-19T09:36:46.090Z,43.38
2018-02-19T09:39:13.589Z,41.05
2018-02-19T09:41:41.119Z,43.53
2018-02-19T09:44:08.642Z,39.63
2018-02-19T09:46:36.145Z,43.35
2018-02-19T09:49:03.710Z,43.83
2018-02-19T09:51:31.217Z,45.58
2018-02-19T09:53:58.747Z,41.08
2018-02-19T09:56:27.011Z,46.45
2018-02-19T09:58:54.532Z,45.72
2018-02-19T10:01:22.066Z,37.97
2018-02-19T10:03:49.586Z,39.67
2018-02-19T10:06:17.263Z,43.17
2018-02-19T10:08:45.344Z,41.25
2018-02-19T10:11:14.368Z,40.80
2018-02-19T10:13:41.898Z,43.22
2018-02-19T10:16:10.247Z,35.05
2018-02-19T10:18:37.849Z,42.17
2018-02-19T10:21:06.103Z,44.35
2018-02-19T10:23:34.375Z,39.58
2018-02-19T10:26:01.917Z,38.63
2018-02-19T10:28:29.472Z,35.67
2018-02-19T10:30:56.984Z,34.22
2018-02-19T10:33:24.498Z,36.78
2018-02-19T10:35:52.051Z,37.33
2018-02-19T10:38:19.557Z,39.10
2018-02-19T10:40:47.116Z,35.50
2018-02-19T10:43:14.636Z,39.67
2018-02-19T10:45:42.183Z,31.48
2018-02-19T10:48:09.715Z,29.87
2018-02-19T10:50:37.266Z,32.05
2018-02-19T10:53:04.792Z,37.35
2018-02-19T10:55:33.086Z,36.15
2018-02-19T10:58:00.611Z,34.47
2018-02-19T11:00:33.840Z,33.55
2018-02-19T11:03:01.359Z,33.58
2018-02-19T11:05:28.887Z,36.83
2018-02-19T11:07:56.420Z,36.95
2018-02-19T11:10:23.949Z,34.55
2018-02-19T11:12:52.249Z,26.02
2018-02-19T11:15:19.764Z,25.70
2018-02-19T11:17:47.326Z,35.05
2018-02-19T11:20:14.858Z,33.53
2018-02-19T11:22:42.402Z,36.95
2018-02-19T11:25:09.916Z,34.42
2018-02-19T11:27:38.195Z,30.58
2018-02-19T11:30:06.490Z,32.92
2018-02-19T11:32:34.024Z,31.87
2018-02-19T11:35:02.322Z,33.30
2018-02-19T11:37:29.847Z,33.63
2018-02-19T11:39:57.379Z,32.88
2018-02-19T11:42:24.871Z,31.80
2018-02-19T11:44:52.433Z,31.15
2018-02-19T11:47:20.713Z,33.00
2018-02-19T11:49:49.056Z,36.10
2018-02-19T11:52:16.554Z,32.63
2018-02-19T11:54:44.270Z,34.30
2018-02-19T11:57:11.823Z,33.58
2018-02-19T11:59:39.382Z,37.05
2018-02-19T12:02:06.895Z,36.08
2018-02-19T12:04:35.179Z,33.75
2018-02-19T12:07:03.471Z,35.85
2018-02-19T12:09:30.975Z,33.17
2018-02-19T12:11:58.499Z,34.28
2018-02-19T12:14:26.043Z,32.10
2018-02-19T12:16:53.588Z,30.30
2018-02-19T12:19:21.911Z,30.42
2018-02-19T12:21:49.417Z,28.75
2018-02-19T12:24:17.759Z,29.08
2018-02-19T12:26:45.276Z,28.80
2018-02-19T12:29:12.932Z,28.15
2018-02-19T12:31:40.464Z,32.45
2018-02-19T12:34:07.996Z,31.75
2018-02-19T12:36:35.490Z,30.27
2018-02-19T12:39:03.768Z,32.70
2018-02-19T12:41:32.050Z,30.08
2018-02-19T12:44:00.344Z,29.75
2018-02-19T12:46:27.880Z,34.90
2018-02-19T12:48:56.165Z,31.42
2018-02-19T12:51:24.463Z,36.22
2018-02-19T12:53:51.989Z,32.42
2018-02-19T12:56:20.278Z,31.40
2018-02-19T12:58:47.844Z,29.67
2018-02-19T13:01:15.354Z,28.90
2018-02-19T13:03:42.896Z,35.80
2018-02-19T13:06:10.447Z,34.30
2018-02-19T13:08:37.948Z,31.55
2018-02-19T13:11:05.467Z,32.67
2018-02-19T13:13:32.975Z,29.48
2018-02-19T13:16:01.267Z,30.92
2018-02-19T13:18:28.779Z,33.35
2018-02-19T13:20:56.351Z,33.50
2018-02-19T13:23:23.881Z,32.50
2018-02-19T13:25:51.394Z,31.25
2018-02-19T13:28:18.938Z,34.60
2018-02-19T13:30:46.454Z,33.50
2018-02-19T13:33:13.998Z,27.33
2018-02-19T13:35:41.509Z,32.55
2018-02-19T13:38:09.041Z,30.42
2018-02-19T13:40:36.581Z,30.15
2018-02-19T13:43:04.116Z,32.08
2018-02-19T13:45:31.614Z,31.92
2018-02-19T13:47:59.130Z,32.47
2018-02-19T13:50:27.091Z,28.65
2018-02-19T13:52:55.355Z,32.28
2018-02-19T13:55:23.668Z,30.17
2018-02-19T13:57:51.189Z,30.33
2018-02-19T14:00:19.505Z,33.10
2018-02-19T14:02:47.036Z,31.08
2018-02-19T14:05:15.332Z,28.30
2018-02-19T14:07:42.845Z,31.50
2018-02-19T14:10:10.376Z,29.73
2018-02-19T14:12:37.911Z,28.38
2018-02-19T14:15:05.726Z,28.95
2018-02-19T14:17:33.230Z,35.08
2018-02-19T14:20:00.770Z,27.75
2018-02-19T14:22:29.077Z,31.58
2018-02-19T14:24:56.601Z,30.52
2018-02-19T14:27:24.913Z,30.15
2018-02-19T14:29:52.423Z,32.80
2018-02-19T14:32:20.729Z,27.10
2018-02-19T14:34:48.240Z,29.80
2018-02-19T14:37:15.766Z,31.67
2018-02-19T14:39:43.277Z,30.85
2018-02-19T14:42:10.846Z,33.53
2018-02-19T14:44:39.141Z,32.83
2018-02-19T14:47:06.670Z,31.70
2018-02-19T14:49:34.208Z,33.10
2018-02-19T14:52:01.735Z,33.08
2018-02-19T14:54:29.273Z,34.22
2018-02-19T14:56:56.805Z,41.40
2018-02-19T14:59:24.322Z,32.13
2018-02-19T15:01:51.868Z,31.10
2018-02-19T15:04:19.403Z,34.25
2018-02-19T15:06:47.692Z,30.50
2018-02-19T15:09:15.193Z,29.98
2018-02-19T15:11:42.734Z,31.23
2018-02-19T15:14:10.250Z,35.30
2018-02-19T15:16:38.563Z,29.20
2018-02-19T15:19:06.213Z,34.50
2018-02-19T15:21:34.516Z,32.75
2018-02-19T15:24:02.066Z,28.02
2018-02-19T15:26:29.579Z,30.90
2018-02-19T15:28:57.902Z,30.15
2018-02-19T15:31:25.403Z,30.00
2018-02-19T15:33:52.967Z,30.12
2018-02-19T15:36:21.259Z,30.95
2018-02-19T15:38:49.551Z,30.75
2018-02-19T15:41:17.117Z,33.20
2018-02-19T15:43:44.676Z,35.17
2018-02-19T15:46:12.222Z,34.97
2018-02-19T15:48:39.719Z,35.20
2018-02-19T15:51:07.217Z,34.88
2018-02-19T15:53:35.521Z,32.95
2018-02-19T15:56:03.060Z,36.35
2018-02-19T15:58:31.332Z,32.05
2018-02-19T16:00:58.881Z,36.55
2018-02-19T16:03:26.423Z,31.33
2018-02-19T16:05:53.980Z,32.42
2018-02-19T16:08:21.509Z,32.45
2018-02-19T16:10:49.195Z,33.08
2018-02-19T16:13:16.971Z,37.47
2018-02-19T16:15:45.302Z,45.00
2018-02-19T16:18:12.837Z,35.05
2018-02-19T16:20:41.130Z,37.63
2018-02-19T16:23:08.762Z,37.40
2018-02-19T16:25:37.256Z,37.85
2018-02-19T16:28:04.817Z,38.45
2018-02-19T16:30:33.105Z,35.13
2018-02-19T16:33:00.668Z,38.40
2018-02-19T16:35:28.175Z,36.65
2018-02-19T16:37:55.774Z,35.50
2018-02-19T16:40:24.064Z,34.53
2018-02-19T16:42:51.612Z,37.75
2018-02-19T16:45:19.890Z,40.10
2018-02-19T16:47:47.401Z,33.05
2018-02-19T16:50:14.967Z,34.60
2018-02-19T16:52:42.442Z,35.05
2018-02-19T16:55:09.955Z,36.13
2018-02-19T16:57:37.475Z,34.10
2018-02-19T17:00:05.794Z,37.75
2018-02-19T17:02:33.340Z,39.65
2018-02-19T17:05:00.899Z,35.55
2018-02-19T17:07:28.433Z,40.88
2018-02-19T17:09:55.959Z,39.15
2018-02-19T17:12:24.278Z,37.90
2018-02-19T17:14:51.935Z,35.97
2018-02-19T17:17:19.514Z,37.75
2018-02-19T17:19:47.081Z,40.45
2018-02-19T17:22:14.974Z,39.92
2018-02-19T17:24:43.405Z,37.40
2018-02-19T17:27:11.100Z,40.97
2018-02-19T17:29:38.678Z,38.08
2018-02-19T17:32:06.262Z,38.72
2018-02-19T17:34:39.296Z,37.83
2018-02-19T17:37:06.873Z,38.15
2018-02-19T17:39:34.934Z,39.30
2018-02-19T17:42:02.489Z,42.70
2018-02-19T17:44:30.004Z,40.90
2018-02-19T17:46:58.366Z,40.15
2018-02-19T17:49:25.927Z,40.50
2018-02-19T17:51:53.491Z,38.67
2018-02-19T17:54:21.080Z,43.33
2018-02-19T17:56:48.638Z,45.45
2018-02-19T17:59:16.224Z,42.13
2018-02-19T18:01:43.794Z,42.05
2018-02-19T18:04:11.359Z,39.45
2018-02-19T18:06:38.919Z,39.22
2018-02-19T18:09:06.434Z,39.90
2018-02-19T18:11:33.955Z,43.30
2018-02-19T18:14:01.508Z,40.88
2018-02-19T18:16:29.010Z,42.05
2018-02-19T18:18:57.287Z,43.22
2018-02-19T18:21:24.822Z,47.58
2018-02-19T18:23:53.107Z,50.35
2018-02-19T18:26:20.658Z,44.22
2018-02-19T18:28:48.943Z,50.10
2018-02-19T18:31:17.239Z,44.30
2018-02-19T18:33:44.761Z,45.15
2018-02-19T18:36:12.301Z,46.22
2018-02-19T18:38:39.829Z,43.78
2018-02-19T18:41:07.352Z,45.50
2018-02-19T18:43:35.662Z,50.85
2018-02-19T18:46:03.204Z,49.97
2018-02-19T18:48:30.735Z,48.92
2018-02-19T18:50:58.287Z,43.05
2018-02-19T18:53:25.805Z,44.40
2018-02-19T18:55:53.386Z,43.80
2018-02-19T18:58:20.920Z,46.58
2018-02-19T19:00:48.440Z,43.35
2018-02-19T19:03:16.731Z,44.97
2018-02-19T19:05:45.044Z,45.12
2018-02-19T19:08:24.547Z,42.60
2018-02-19T19:10:52.103Z,45.70
2018-02-19T19:13:19.655Z,42.72
2018-02-19T19:15:47.954Z,48.67
2018-02-19T19:18:15.514Z,44.63
2018-02-19T19:20:43.111Z,44.63
2018-02-19T19:23:10.676Z,46.45
2018-02-19T19:25:38.214Z,44.47
2018-02-19T19:28:05.809Z,48.17
2018-02-19T19:30:33.416Z,51.72
2018-02-19T19:33:00.995Z,44.60
2018-02-19T19:35:28.528Z,47.45
2018-02-19T19:37:56.057Z,45.10
2018-02-19T19:40:24.482Z,42.22
2018-02-19T19:42:52.959Z,48.53
2018-02-19T19:45:20.505Z,46.50
2018-02-19T19:47:48.027Z,49.83
2018-02-19T19:50:15.548Z,54.22
2018-02-19T19:52:43.645Z,54.60
2018-02-19T19:55:11.304Z,46.00
2018-02-19T19:57:39.917Z,46.00
2018-02-19T20:00:08.291Z,49.75
2018-02-19T20:02:35.843Z,55.97
2018-02-19T20:05:03.358Z,45.38
2018-02-19T20:07:31.088Z,49.50
2018-02-19T20:09:59.547Z,47.92
2018-02-19T20:12:27.888Z,44.80
2018-02-19T20:14:55.397Z,48.33
2018-02-19T20:17:23.723Z,56.95
2018-02-19T20:19:51.716Z,51.40
2018-02-19T20:22:19.427Z,58.42
2018-02-19T20:24:46.996Z,50.53
2018-02-19T20:27:14.623Z,47.08
2018-02-19T20:29:43.256Z,49.40
2018-02-19T20:32:10.840Z,48.17
2018-02-19T20:34:38.459Z,49.50
2018-02-19T20:37:05.962Z,50.47
2018-02-19T20:39:34.524Z,46.03
2018-02-19T20:42:02.346Z,51.47
2018-02-19T20:44:29.924Z,48.13
2018-02-19T20:46:57.469Z,48.05
2018-02-19T20:49:25.732Z,51.97
2018-02-19T20:51:54.151Z,53.47
2018-02-19T20:54:21.998Z,48.97
2018-02-19T20:56:49.603Z,51.03
2018-02-19T20:59:17.121Z,49.65
2018-02-19T21:01:44.851Z,51.30
2018-02-19T21:04:13.426Z,51.55
2018-02-19T21:06:40.978Z,54.83
2018-02-19T21:09:08.530Z,49.63
2018-02-19T21:11:36.050Z,51.85
2018-02-19T21:14:03.943Z,51.85
2018-02-19T21:16:31.681Z,51.30
2018-02-19T21:19:00.045Z,50.50
2018-02-19T21:21:27.577Z,51.00
2018-02-19T21:23:55.366Z,54.30
2018-02-19T21:26:24.032Z,48.10
2018-02-19T21:28:51.608Z,53.70
2018-02-19T21:31:20.432Z,55.00
2018-02-19T21:33:47.981Z,52.90
2018-02-19T21:36:15.503Z,60.40
2018-02-19T21:38:43.845Z,53.78
2018-02-19T21:41:11.370Z,59.83
2018-02-19T21:43:39.077Z,63.33
2018-02-19T21:46:06.591Z,57.88
2018-02-19T21:48:34.132Z,60.15
2018-02-19T21:51:02.393Z,58.70
2018-02-19T21:53:31.170Z,62.95
2018-02-19T21:55:59.046Z,58.08
2018-02-19T21:58:27.731Z,51.83
2018-02-19T22:00:56.007Z,55.88
2018-02-19T22:03:24.320Z,57.08
2018-02-19T22:05:51.817Z,62.15
2018-02-19T22:08:19.337Z,52.22
2018-02-19T22:10:46.886Z,55.55
2018-02-19T22:13:14.407Z,54.58
2018-02-19T22:15:41.903Z,53.22
2018-02-19T22:18:09.435Z,54.25
2018-02-19T22:20:37.708Z,60.22
2018-02-19T22:23:05.285Z,59.55
2018-02-19T22:25:32.782Z,63.25
2018-02-19T22:28:00.313Z,56.60
2018-02-19T22:30:27.832Z,59.58
2018-02-19T22:32:55.399Z,57.08
2018-02-19T22:35:23.746Z,57.03
2018-02-19T22:37:52.010Z,58.90
2018-02-19T22:40:19.531Z,57.72
2018-02-19T22:42:47.837Z,57.22
2018-02-19T22:45:15.378Z,62.47
2018-02-19T22:47:42.895Z,53.00
2018-02-19T22:50:10.425Z,57.88
2018-02-19T22:52:37.986Z,61.28
2018-02-19T22:55:05.514Z,57.13
2018-02-19T22:57:33.014Z,53.53
2018-02-19T23:00:00.557Z,53.05
2018-02-19T23:02:28.061Z,55.38
2018-02-19T23:04:56.350Z,61.28
2018-02-19T23:07:24.619Z,57.30
2018-02-19T23:09:52.899Z,57.97
2018-02-19T23:12:21.199Z,56.78
2018-02-19T23:14:48.691Z,53.33
2018-02-19T23:17:16.195Z,55.85
2018-02-19T23:19:44.470Z,58.87
2018-02-19T23:22:12.736Z,52.28
2018-02-19T23:24:41.076Z,54.38
2018-02-19T23:27:08.572Z,53.87
2018-02-19T23:29:36.827Z,54.70
2018-02-19T23:32:04.346Z,53.00
2018-02-19T23:34:31.854Z,62.08
2018-02-19T23:36:59.370Z,56.25
2018-02-19T23:39:26.858Z,56.20
2018-02-19T23:41:54.398Z,52.78
2018-02-19T23:44:21.910Z,52.38
2018-02-19T23:46:50.214Z,52.65
2018-02-19T23:49:17.732Z,52.62
2018-02-19T23:51:45.263Z,58.90
2018-02-19T23:54:19.624Z,54.05
2018-02-19T23:56:47.921Z,50.97
2018-02-19T23:59:15.441Z,56.33
